Massena, NY

9:20 PM EST on December 15, 2019 (GMT -0500)
Massena International-Richards

Weather History for KMSS - October, 2019

Change the Weather History Date:

Thursday, October 31, 2019

  Actual Average Record
Temperature  
Mean Temperature 55 °F 41 °F  
Max Temperature 60 °F 50 °F 73 °F (1956)
Min Temperature 50 °F 32 °F 16 °F (1975)
Degree Days  
Heating Degree Days 10 24  
Month to date heating degree days 494 583  
Since 1 July heating degree days 709 883  
Cooling Degree Days 0 0  
Month to date cooling degree days 0 2  
Year to date cooling degree days 398 363  
Growing Degree Days 5 (Base 50)    
Moisture  
Dew Point 54 °F    
Average Humidity 92    
Maximum Humidity 97    
Minimum Humidity 86    
Precipitation  
Precipitation 2.25 in 0.10 in 2.25 in (2019)
Month to date precipitation 7.82 3.31  
Year to date precipitation 31.53 29.50  
Sea Level Pressure  
Sea Level Pressure 29.59 in    
Wind  
Wind Speed 7 mph (NE)    
Max Wind Speed 30 mph    
Max Gust Speed 44 mph    
Visibility 5 miles    
Events Rain    
T = Trace of Precipitation, MM = Missing Value Source: NWS Daily Summary

Daily Weather History Graph

Daily Weather History Graph

Search for Another Location

Airport or City:

Astronomy

Oct. 31, 2019 Rise Set
Actual Time 7:36 AM EDT 5:49 PM EDT
Civil Twilight 7:05 AM EDT 6:19 PM EDT
Nautical Twilight 6:30 AM EDT 6:54 PM EDT
Astronomical Twilight 5:56 AM EDT 7:28 PM EDT
Moon 11:29 AM EDT (10/31) 8:35 PM EDT (10/31)
Length of Visible Light 11h 14m
Length of Day
10h 13m
Waxing Crescent, 15% of the Moon is Illuminated
Oct 31
Waxing Crescent
Nov 4
First Quarter
Nov 12
Full
Nov 19
Last Quarter
Nov 26
New

Hourly Weather History & Observations

Time (EDT) Temp. Dew Point Humidity Pressure Visibility Wind Dir Wind Speed Gust Speed Precip Events Conditions
12:53 AM 50.0 °F 46.0 °F 86% 30.02 in 10.0 mi NE 4.6 mph - 0.01 in Rain Light Rain
1:01 AM 50.0 °F 46.0 °F 86% 30.01 in 10.0 mi ENE 6.9 mph - 0.00 in Rain Light Rain
1:38 AM 50.0 °F 46.9 °F 89% 29.99 in 9.0 mi East 5.8 mph - 0.02 in Rain Light Rain
1:53 AM 51.1 °F 48.0 °F 89% 29.98 in 6.0 mi East 8.1 mph - 0.06 in Rain Rain
2:53 AM 51.1 °F 48.0 °F 89% 29.94 in 8.0 mi East 8.1 mph - 0.04 in Rain Light Rain
3:07 AM 51.1 °F 48.0 °F 89% 29.92 in 7.0 mi ENE 9.2 mph - 0.00 in Rain Light Rain
3:53 AM 50.0 °F 48.0 °F 93% 29.91 in 8.0 mi NE 8.1 mph - 0.00 in Rain Light Rain
4:53 AM 50.0 °F 48.0 °F 93% 29.87 in 6.0 mi East 4.6 mph - 0.00 in Rain Light Rain
5:53 AM 50.0 °F 48.0 °F 93% 29.85 in 6.0 mi ENE 4.6 mph - 0.00 in   Overcast
6:53 AM 50.0 °F 48.9 °F 96% 29.82 in 4.0 mi ENE 4.6 mph - 0.01 in Rain Light Rain
7:53 AM 51.1 °F 48.9 °F 92% 29.80 in 5.0 mi ENE 4.6 mph - 0.00 in   Overcast
8:16 AM 51.1 °F 48.9 °F 92% 29.80 in 5.0 mi East 4.6 mph - N/A   Overcast
8:33 AM 51.1 °F 48.9 °F 92% 29.79 in 5.0 mi East 4.6 mph - N/A   Overcast
8:49 AM 51.8 °F 48.2 °F 88% 29.78 in 5.0 mi East 4.6 mph - N/A   Overcast
8:53 AM 51.1 °F 48.9 °F 92% 29.78 in 5.0 mi East 4.6 mph - N/A   Overcast
9:07 AM 51.1 °F 48.9 °F 92% 29.78 in 6.0 mi East 4.6 mph - N/A   Overcast
9:53 AM 53.1 °F 50.0 °F 89% 29.76 in 7.0 mi East 4.6 mph - N/A   Overcast
10:14 AM 53.1 °F 51.1 °F 93% 29.75 in 7.0 mi Calm Calm - N/A   Overcast
10:43 AM 54.0 °F 52.0 °F 93% 29.74 in 8.0 mi Calm Calm - N/A   Overcast
10:53 AM 55.0 °F 52.0 °F 89% 29.73 in 8.0 mi East 3.5 mph - N/A   Overcast
11:53 AM 57.0 °F 54.0 °F 89% 29.70 in 10.0 mi East 3.5 mph - N/A   Overcast
12:53 PM 57.9 °F 55.0 °F 90% 29.66 in 8.0 mi NE 5.8 mph - 0.01 in Rain Light Rain
1:33 PM 57.9 °F 55.9 °F 93% 29.63 in 2.0 mi NE 3.5 mph - 0.06 in Rain Rain
1:45 PM 57.0 °F 55.0 °F 93% 29.62 in 4.0 mi NE 4.6 mph - 0.07 in Rain Light Rain
1:53 PM 57.0 °F 55.0 °F 93% 29.62 in 4.0 mi NE 4.6 mph - 0.08 in Rain Light Rain
2:23 PM 57.0 °F 55.0 °F 93% 29.59 in 2.0 mi NNE 4.6 mph - 0.07 in Rain Rain
2:28 PM 57.0 °F 55.0 °F 93% 29.59 in 2.0 mi NNE 3.5 mph - 0.08 in Rain Rain
2:40 PM 57.0 °F 55.0 °F 93% 29.58 in 2.5 mi NNE 3.5 mph - 0.10 in Rain Rain
2:53 PM 57.0 °F 55.0 °F 93% 29.57 in 2.5 mi NNE 4.6 mph - 0.12 in Rain Light Rain
3:03 PM 57.0 °F 55.0 °F 93% 29.56 in 3.0 mi NE 4.6 mph - 0.01 in Rain Light Rain
3:15 PM 57.0 °F 55.0 °F 93% 29.55 in 2.5 mi NNE 4.6 mph - 0.02 in Rain Light Rain
3:34 PM 57.9 °F 55.9 °F 93% 29.54 in 3.0 mi ENE 3.5 mph - 0.04 in Rain Light Rain
3:53 PM 57.9 °F 55.9 °F 93% 29.52 in 2.5 mi ENE 5.8 mph - 0.10 in Rain Rain
4:06 PM 57.9 °F 55.9 °F 93% 29.51 in 3.0 mi ENE 4.6 mph - 0.03 in Rain Rain
4:20 PM 57.9 °F 55.9 °F 93% 29.49 in 2.5 mi NE 6.9 mph - 0.08 in Rain Rain
4:37 PM 57.9 °F 57.0 °F 97% 29.50 in 4.0 mi Calm Calm - 0.12 in Rain Rain
4:50 PM 57.2 °F 55.4 °F 94% 29.49 in 1.8 mi NE 3.5 mph - 0.19 in Rain Heavy Rain
4:53 PM 57.9 °F 55.9 °F 93% 29.49 in 1.8 mi NE 5.8 mph - 0.22 in Rain Heavy Rain
5:00 PM 57.9 °F 57.0 °F 97% 29.47 in 2.0 mi NNE 6.9 mph - 0.01 in Rain Rain
5:09 PM 57.9 °F 57.0 °F 97% 29.47 in 4.0 mi NE 6.9 mph - 0.02 in Rain Light Rain
5:17 PM 57.9 °F 57.0 °F 97% 29.46 in 2.5 mi NE 5.8 mph - 0.04 in Rain Rain
5:27 PM 59.0 °F 57.0 °F 93% 29.45 in 1.8 mi NE 6.9 mph - 0.09 in Rain Rain
5:37 PM 59.0 °F 57.0 °F 93% 29.44 in 2.5 mi NE 8.1 mph - 0.14 in Rain Heavy Rain
5:53 PM 60.1 °F 57.9 °F 93% 29.43 in 4.0 mi ENE 11.5 mph - 0.21 in Rain Rain
6:13 PM 60.1 °F 57.9 °F 93% 29.41 in 3.0 mi ENE 9.2 mph - 0.05 in Rain Rain
6:42 PM 60.1 °F 57.9 °F 93% 29.40 in 4.0 mi NNE 6.9 mph - 0.21 in Rain Heavy Rain
6:53 PM 60.1 °F 59.0 °F 96% 29.39 in 3.0 mi NNE 8.1 mph - 0.29 in Rain Heavy Rain
7:03 PM 60.1 °F 59.0 °F 96% 29.39 in 2.0 mi NNE 8.1 mph - 0.12 in Rain Heavy Rain
7:14 PM 60.1 °F 59.0 °F 96% 29.38 in 3.0 mi NNE 9.2 mph - 0.18 in Rain Heavy Rain
7:39 PM 60.1 °F 59.0 °F 96% 29.36 in 4.0 mi NNE 5.8 mph - 0.30 in Rain Heavy Rain
7:53 PM 60.1 °F 59.0 °F 96% 29.36 in 4.0 mi NNE 6.9 mph - 0.35 in Rain Heavy Rain
8:02 PM 60.1 °F 59.0 °F 96% 29.36 in 5.0 mi NNE 5.8 mph - 0.03 in Rain Rain
8:16 PM 60.1 °F 59.0 °F 96% 29.37 in 2.5 mi West 3.5 mph - 0.09 in Rain Heavy Rain
8:29 PM 60.1 °F 57.9 °F 93% 29.36 in 3.0 mi WNW 4.6 mph - 0.15 in Rain Rain
8:45 PM 60.1 °F 57.9 °F 93% 29.36 in 4.0 mi NW 4.6 mph - 0.20 in Rain Rain
8:53 PM 59.0 °F 57.9 °F 96% 29.37 in 4.0 mi WNW 6.9 mph - 0.22 in Rain Rain
9:01 PM 59.0 °F 57.0 °F 93% 29.37 in 3.0 mi WNW 8.1 mph - 0.04 in Rain Heavy Rain
9:12 PM 57.0 °F 55.9 °F 96% 29.35 in 4.0 mi WNW 4.6 mph - 0.07 in Rain Rain
9:53 PM 57.9 °F 55.9 °F 93% 29.33 in 10.0 mi East 4.6 mph - 0.08 in Rain Light Rain
10:53 PM 59.0 °F 57.0 °F 93% 29.28 in 4.0 mi ENE 6.9 mph - 0.15 in Rain Rain
11:53 PM 55.9 °F 54.0 °F 93% 29.21 in 4.0 mi North 6.9 mph - 0.11 in Rain Rain